createdAt,value
2023-01-03T10:49:52.127Z,11.4
2023-01-03T10:51:05.556Z,13.6
2023-01-03T11:05:59.016Z,18.9
2023-01-03T11:20:46.326Z,20.7
2023-01-03T11:35:28.849Z,21.3
2023-01-03T11:50:10.242Z,22
2023-01-03T12:04:53.079Z,24.4
2023-01-03T12:19:34.835Z,24.4
2023-01-03T12:34:12.599Z,23.4
2023-01-03T12:48:49.888Z,22.8
2023-01-03T13:03:29.654Z,22.6
2023-01-03T13:18:08.171Z,22.2
2023-01-03T13:32:46.824Z,22
2023-01-03T13:47:26.394Z,22
2023-01-03T14:02:05.766Z,22
2023-01-03T14:16:44.789Z,21.9
2023-01-03T14:31:22.951Z,21.6
2023-01-03T14:46:02.251Z,21.5
2023-01-03T15:00:41.029Z,21.5
2023-01-03T15:15:19.876Z,21.4
2023-01-03T15:29:59.516Z,21.3
2023-01-03T15:44:52.331Z,21.3
2023-01-03T15:59:26.614Z,21.3
2023-01-03T16:29:03.506Z,21.2
2023-01-03T16:43:40.901Z,21.1
2023-01-03T16:58:19.681Z,21
2023-01-03T17:12:59.319Z,21
2023-01-03T17:27:38.540Z,20.9
2023-01-03T17:42:18.490Z,20.8
2023-01-03T17:56:57.984Z,20.7
2023-01-03T18:11:35.720Z,20.8
2023-01-03T18:26:15.822Z,20.9
2023-01-03T18:41:00.623Z,21
2023-01-03T18:55:40.970Z,21.1
2023-01-03T19:10:21.372Z,21.3
2023-01-03T19:25:01.913Z,21.5
2023-01-03T19:39:41.681Z,21.5
2023-01-03T19:54:20.473Z,21.4
2023-01-03T20:09:00.273Z,21.3
2023-01-03T20:23:39.930Z,21.2
2023-01-03T20:38:19.014Z,21.2
2023-01-03T20:52:58.134Z,21.3
2023-01-03T21:07:38.434Z,21.3
2023-01-03T21:22:18.867Z,21.4
2023-01-03T21:36:58.228Z,21.4
2023-01-03T21:51:39.256Z,21.3
2023-01-03T22:06:17.848Z,21.3
2023-01-03T22:20:57.618Z,21.2
2023-01-03T22:35:35.577Z,21.1
2023-01-03T22:50:12.241Z,21
2023-01-03T23:04:51.251Z,20.9
2023-01-03T23:19:31.240Z,20.8
2023-01-03T23:34:11.097Z,20.7
